Time;durP1;ratioP1;P1;durP2;ratioP2;P2;SDS_P1;SDS_P2;PMS_P1;PMS_P2;Temp;Humidity;BMP_temperature;BMP_pressure;BME280_temperature;BME280_humidity;BME280_pressure;Samples;Min_cycle;Max_cycle;Signal;HPM_P1;HPM_P2
2022/03/15 00:02:21;;;;;;;28.17;12.93;;;;;;;;;;6137556;23;20226;-89
2022/03/15 00:05:26;;;;;;;32.53;13.20;;;;;;;;;;6137030;23;20173;-89
2022/03/15 00:08:32;;;;;;;30.47;13.27;;;;;;;;;;6136714;23;20220;-86
2022/03/15 00:11:37;;;;;;;29.83;13.53;;;;;;;;;;6138138;23;20153;-89
2022/03/15 00:14:48;;;;;;;31.27;14.23;;;;;;;;;;6137099;23;20176;-89
2022/03/15 00:17:54;;;;;;;32.63;13.97;;;;;;;;;;6137425;23;20216;-90
2022/03/15 00:21:00;;;;;;;30.07;12.63;;;;;;;;;;6139904;23;20169;-88
2022/03/15 00:24:06;;;;;;;29.33;12.87;;;;;;;;;;6148175;23;20185;-90
2022/03/15 00:27:11;;;;;;;27.77;13.50;;;;;;;;;;6167069;23;20172;-90
2022/03/15 00:30:18;;;;;;;28.93;12.63;;;;;;;;;;6167640;23;20188;-88
2022/03/15 00:33:26;;;;;;;25.00;11.83;;;;;;;;;;6150303;23;20169;-88
2022/03/15 00:36:35;;;;;;;28.73;11.87;;;;;;;;;;6149929;23;20172;-89
2022/03/15 00:39:41;;;;;;;28.90;13.37;;;;;;;;;;6149949;23;20632;-89
2022/03/15 00:42:47;;;;;;;28.93;12.20;;;;;;;;;;6148296;23;20180;-89
2022/03/15 00:45:55;;;;;;;27.50;12.90;;;;;;;;;;6148471;23;20176;-88
2022/03/15 00:49:00;;;;;;;25.80;11.93;;;;;;;;;;6147112;23;20193;-89
2022/03/15 00:52:09;;;;;;;29.90;11.80;;;;;;;;;;6148022;23;20224;-88
2022/03/15 00:55:14;;;;;;;32.50;13.53;;;;;;;;;;6148239;23;20163;-88
2022/03/15 00:58:22;;;;;;;31.67;13.53;;;;;;;;;;6148641;23;20152;-88
2022/03/15 01:01:29;;;;;;;25.70;12.57;;;;;;;;;;6148371;23;20259;-89
2022/03/15 01:04:34;;;;;;;27.10;12.93;;;;;;;;;;6147362;23;20172;-89
2022/03/15 01:07:39;;;;;;;30.63;12.20;;;;;;;;;;6148195;23;20305;-88
2022/03/15 01:10:45;;;;;;;27.07;12.87;;;;;;;;;;6147544;23;20169;-89
2022/03/15 01:13:51;;;;;;;32.10;13.50;;;;;;;;;;6148392;23;20176;-89
2022/03/15 01:16:57;;;;;;;28.93;13.50;;;;;;;;;;6147913;23;20244;-88
2022/03/15 01:20:04;;;;;;;29.43;13.10;;;;;;;;;;6149121;23;20164;-89
2022/03/15 01:23:09;;;;;;;28.00;12.73;;;;;;;;;;6165284;23;20196;-90
2022/03/15 01:26:15;;;;;;;30.37;12.73;;;;;;;;;;6148072;23;20172;-89
2022/03/15 01:29:20;;;;;;;32.83;14.00;;;;;;;;;;6147848;23;20199;-91
2022/03/15 01:32:27;;;;;;;28.93;13.43;;;;;;;;;;6147132;23;20280;-89
2022/03/15 01:35:32;;;;;;;29.53;13.93;;;;;;;;;;6163979;23;20172;-89
2022/03/15 01:38:37;;;;;;;33.63;14.07;;;;;;;;;;6146948;23;20172;-91
2022/03/15 01:41:45;;;;;;;32.70;13.73;;;;;;;;;;6146881;23;20205;-89
2022/03/15 01:44:51;;;;;;;30.73;13.07;;;;;;;;;;6165747;23;20176;-89
2022/03/15 01:47:57;;;;;;;27.63;13.23;;;;;;;;;;6148595;23;20164;-89
2022/03/15 01:51:04;;;;;;;32.73;14.13;;;;;;;;;;6146688;23;20288;-88
2022/03/15 01:54:09;;;;;;;29.67;13.20;;;;;;;;;;6145977;23;20255;-88
2022/03/15 01:57:15;;;;;;;30.50;13.53;;;;;;;;;;6146652;23;20200;-89
2022/03/15 02:00:21;;;;;;;31.57;12.90;;;;;;;;;;6147011;23;20300;-88
2022/03/15 02:03:34;;;;;;;28.47;13.27;;;;;;;;;;6165621;23;20716;-89
2022/03/15 02:06:39;;;;;;;28.57;12.57;;;;;;;;;;6147303;23;20173;-89
2022/03/15 02:09:44;;;;;;;27.33;12.57;;;;;;;;;;6164144;23;20197;-89
2022/03/15 02:12:49;;;;;;;29.37;13.03;;;;;;;;;;6147982;23;20514;-88
2022/03/15 02:15:54;;;;;;;28.90;12.67;;;;;;;;;;6147775;23;20176;-89
2022/03/15 02:19:01;;;;;;;31.20;13.13;;;;;;;;;;6148004;23;20220;-90
2022/03/15 02:22:07;;;;;;;26.53;12.73;;;;;;;;;;6136590;23;20191;-90
2022/03/15 02:25:13;;;;;;;29.67;13.47;;;;;;;;;;6135930;23;20173;-89
2022/03/15 02:28:18;;;;;;;27.77;12.70;;;;;;;;;;6134123;23;20237;-89
2022/03/15 02:31:24;;;;;;;29.93;13.97;;;;;;;;;;6133379;23;20246;-89
2022/03/15 02:34:28;;;;;;;26.57;12.57;;;;;;;;;;6134025;23;20193;-89
2022/03/15 02:37:35;;;;;;;26.17;12.27;;;;;;;;;;6133904;23;20168;-88
2022/03/15 02:40:40;;;;;;;32.60;13.23;;;;;;;;;;6135259;23;20177;-89
2022/03/15 02:43:45;;;;;;;29.00;12.37;;;;;;;;;;6135825;23;20612;-90
2022/03/15 02:46:50;;;;;;;28.10;12.87;;;;;;;;;;6135952;23;20232;-89
2022/03/15 02:49:55;;;;;;;30.40;13.37;;;;;;;;;;6136472;23;20630;-88
2022/03/15 02:53:05;;;;;;;30.77;13.07;;;;;;;;;;6137632;23;20242;-89
2022/03/15 02:56:11;;;;;;;28.10;12.40;;;;;;;;;;6137308;23;20174;-89
2022/03/15 02:59:16;;;;;;;29.60;13.17;;;;;;;;;;6138523;23;20233;-89
2022/03/15 03:02:21;;;;;;;29.73;13.27;;;;;;;;;;6136411;23;20621;-89
2022/03/15 03:05:26;;;;;;;30.97;12.50;;;;;;;;;;6136822;23;20176;-89
2022/03/15 03:08:35;;;;;;;29.53;13.67;;;;;;;;;;6136441;23;20173;-87
2022/03/15 03:11:42;;;;;;;27.37;13.23;;;;;;;;;;6135164;23;20191;-91
2022/03/15 03:14:47;;;;;;;33.47;14.17;;;;;;;;;;6135291;23;20172;-89
2022/03/15 03:17:53;;;;;;;33.50;14.13;;;;;;;;;;6136027;23;20196;-88
2022/03/15 03:20:58;;;;;;;28.03;13.23;;;;;;;;;;6139390;23;20238;-89
2022/03/15 03:24:06;;;;;;;33.97;14.63;;;;;;;;;;6148946;23;20177;-89
2022/03/15 03:27:13;;;;;;;32.73;15.23;;;;;;;;;;6148160;23;20168;-88
2022/03/15 03:30:19;;;;;;;32.33;15.20;;;;;;;;;;6149113;23;20269;-90
2022/03/15 03:33:25;;;;;;;30.97;14.33;;;;;;;;;;6166038;23;20172;-88
2022/03/15 03:36:31;;;;;;;35.53;14.30;;;;;;;;;;6164077;23;20188;-90
2022/03/15 03:39:38;;;;;;;33.83;13.97;;;;;;;;;;6149753;23;20173;-90
2022/03/15 03:42:43;;;;;;;30.67;12.83;;;;;;;;;;6149181;23;20172;-90
2022/03/15 03:45:48;;;;;;;35.27;13.17;;;;;;;;;;6149427;23;20167;-89
2022/03/15 03:48:53;;;;;;;27.70;13.13;;;;;;;;;;6147823;23;20229;-88
2022/03/15 03:51:58;;;;;;;31.30;13.73;;;;;;;;;;6147775;23;20177;-90
2022/03/15 03:55:05;;;;;;;30.10;13.90;;;;;;;;;;6147911;23;20177;-89
2022/03/15 03:58:11;;;;;;;31.67;14.50;;;;;;;;;;6148170;23;20229;-88
2022/03/15 04:01:16;;;;;;;36.30;15.43;;;;;;;;;;6147740;23;20213;-89
2022/03/15 04:04:21;;;;;;;35.67;16.10;;;;;;;;;;6150160;23;20656;-89
2022/03/15 04:07:28;;;;;;;38.23;16.67;;;;;;;;;;6149713;23;20285;-91
2022/03/15 04:10:34;;;;;;;33.93;15.07;;;;;;;;;;6147234;23;20196;-90
2022/03/15 04:13:44;;;;;;;36.77;15.87;;;;;;;;;;6148706;23;20246;-92
2022/03/15 04:16:48;;;;;;;38.33;15.20;;;;;;;;;;6147783;23;20175;-88
2022/03/15 04:19:53;;;;;;;36.30;14.70;;;;;;;;;;6148390;23;20176;-88
2022/03/15 04:22:58;;;;;;;34.83;15.30;;;;;;;;;;6136632;23;20196;-89
2022/03/15 04:26:05;;;;;;;34.33;14.93;;;;;;;;;;6135199;23;20678;-88
2022/03/15 04:29:10;;;;;;;32.23;14.43;;;;;;;;;;6134462;23;20247;-88
2022/03/15 04:32:15;;;;;;;33.83;14.27;;;;;;;;;;6136260;23;20173;-89
2022/03/15 04:35:20;;;;;;;32.53;15.73;;;;;;;;;;6135955;23;20230;-90
2022/03/15 04:38:25;;;;;;;31.47;14.47;;;;;;;;;;6135855;23;20169;-89
2022/03/15 04:41:32;;;;;;;34.23;14.90;;;;;;;;;;6135092;23;20176;-88
2022/03/15 04:44:37;;;;;;;35.23;14.80;;;;;;;;;;6137357;23;20669;-91
2022/03/15 04:47:43;;;;;;;33.20;15.10;;;;;;;;;;6134576;23;20505;-89
2022/03/15 04:50:48;;;;;;;33.13;14.83;;;;;;;;;;6135156;23;20243;-88
2022/03/15 04:53:54;;;;;;;35.90;14.97;;;;;;;;;;6134977;23;20503;-90
2022/03/15 04:57:00;;;;;;;34.23;15.07;;;;;;;;;;6134458;23;20181;-91
2022/03/15 05:00:09;;;;;;;30.47;13.37;;;;;;;;;;6133421;23;20419;-88
2022/03/15 05:03:16;;;;;;;34.27;14.37;;;;;;;;;;6135045;23;20182;-87
2022/03/15 05:06:21;;;;;;;30.00;12.90;;;;;;;;;;6133798;23;20177;-88
2022/03/15 05:09:26;;;;;;;35.83;14.70;;;;;;;;;;6135221;23;20173;-88
2022/03/15 05:12:32;;;;;;;34.63;14.47;;;;;;;;;;6135885;23;20169;-89
2022/03/15 05:15:41;;;;;;;30.33;14.37;;;;;;;;;;6132570;23;20176;-87
2022/03/15 05:18:52;;;;;;;33.07;14.77;;;;;;;;;;6134578;23;20275;-89
2022/03/15 05:21:57;;;;;;;37.47;15.13;;;;;;;;;;6148763;23;20196;-86
2022/03/15 05:25:02;;;;;;;36.73;14.43;;;;;;;;;;6164034;23;20173;-89
2022/03/15 05:28:10;;;;;;;39.87;14.37;;;;;;;;;;6164301;23;20172;-91
2022/03/15 05:31:15;;;;;;;35.90;15.03;;;;;;;;;;6147162;23;20623;-89
2022/03/15 05:34:21;;;;;;;35.17;14.60;;;;;;;;;;6149269;23;20165;-88
2022/03/15 05:37:26;;;;;;;32.23;13.47;;;;;;;;;;6167308;23;20180;-88
2022/03/15 05:40:31;;;;;;;32.43;14.20;;;;;;;;;;6149900;23;20209;-91
2022/03/15 05:43:38;;;;;;;32.77;14.57;;;;;;;;;;6166174;23;20246;-90
2022/03/15 05:46:43;;;;;;;35.13;14.03;;;;;;;;;;6166007;23;20207;-89
2022/03/15 05:49:48;;;;;;;29.47;13.73;;;;;;;;;;6166177;23;20196;-88
2022/03/15 05:52:53;;;;;;;30.87;14.53;;;;;;;;;;6164729;23;20516;-88
2022/03/15 05:55:59;;;;;;;36.23;14.30;;;;;;;;;;6153016;23;20189;-88
2022/03/15 05:59:05;;;;;;;30.77;14.90;;;;;;;;;;6165981;23;20240;-88
2022/03/15 06:02:10;;;;;;;31.10;14.93;;;;;;;;;;6148389;23;20188;-89
2022/03/15 06:05:16;;;;;;;33.33;15.53;;;;;;;;;;6166737;23;20232;-89
2022/03/15 06:08:21;;;;;;;31.90;14.90;;;;;;;;;;6148481;23;20176;-89
2022/03/15 06:11:25;;;;;;;34.57;15.03;;;;;;;;;;6167884;23;20200;-89
2022/03/15 06:14:32;;;;;;;32.67;14.20;;;;;;;;;;6166121;23;20224;-89
2022/03/15 06:21:56;;;;;;;32.70;14.57;;;;;;;;;;6165817;23;20180;-89
2022/03/15 06:25:01;;;;;;;32.87;14.30;;;;;;;;;;6149957;23;20200;-90
2022/03/15 06:28:06;;;;;;;29.77;13.70;;;;;;;;;;6150102;23;20168;-89
2022/03/15 06:31:17;;;;;;;33.97;14.07;;;;;;;;;;6148964;23;20236;-90
2022/03/15 06:34:23;;;;;;;29.93;13.53;;;;;;;;;;6149041;23;20172;-91
2022/03/15 06:37:29;;;;;;;29.80;14.10;;;;;;;;;;6153088;23;20170;-88
2022/03/15 06:40:35;;;;;;;30.03;13.60;;;;;;;;;;6150539;23;20269;-89
2022/03/15 06:43:41;;;;;;;31.03;13.90;;;;;;;;;;6151599;23;20226;-87
2022/03/15 06:46:48;;;;;;;31.67;14.67;;;;;;;;;;6150797;23;20189;-89
2022/03/15 06:49:53;;;;;;;28.70;13.30;;;;;;;;;;6150061;23;20234;-90
2022/03/15 06:52:58;;;;;;;33.00;14.40;;;;;;;;;;6148506;23;20217;-89
2022/03/15 06:56:04;;;;;;;33.30;14.00;;;;;;;;;;6150817;23;20164;-89
2022/03/15 06:59:09;;;;;;;34.27;14.20;;;;;;;;;;6146824;23;20629;-89
2022/03/15 07:02:15;;;;;;;34.53;14.43;;;;;;;;;;6145846;23;20177;-88
2022/03/15 07:08:41;;;;;;;34.57;14.20;;;;;;;;;;6148259;23;20168;-90
2022/03/15 07:11:46;;;;;;;34.87;14.60;;;;;;;;;;6148295;23;20193;-87
2022/03/15 07:14:51;;;;;;;29.30;13.57;;;;;;;;;;6164428;23;20172;-89
2022/03/15 07:18:31;;;;;;;30.20;13.47;;;;;;;;;;6148258;23;20176;-88
2022/03/15 07:21:37;;;;;;;31.23;14.33;;;;;;;;;;6163159;23;20267;-89
2022/03/15 07:24:42;;;;;;;35.73;14.90;;;;;;;;;;6165257;23;20217;-88
2022/03/15 07:27:47;;;;;;;30.33;14.10;;;;;;;;;;6150172;23;20660;-91
2022/03/15 07:30:53;;;;;;;32.73;14.43;;;;;;;;;;6149818;23;20235;-90
2022/03/15 07:33:58;;;;;;;34.17;14.23;;;;;;;;;;6154071;23;20153;-90
2022/03/15 07:37:05;;;;;;;30.03;14.30;;;;;;;;;;6170773;23;20168;-88
2022/03/15 07:40:10;;;;;;;32.07;14.00;;;;;;;;;;6169884;23;20173;-90
2022/03/15 07:43:15;;;;;;;36.60;14.27;;;;;;;;;;6152908;23;20172;-89
2022/03/15 07:46:21;;;;;;;42.90;16.20;;;;;;;;;;6152552;23;20183;-90
2022/03/15 07:49:26;;;;;;;33.87;15.70;;;;;;;;;;6152805;23;20244;-88
2022/03/15 07:52:33;;;;;;;35.10;15.20;;;;;;;;;;6150947;23;20173;-89
2022/03/15 07:55:38;;;;;;;37.43;14.73;;;;;;;;;;6151654;23;20172;-89
2022/03/15 07:58:43;;;;;;;30.50;14.50;;;;;;;;;;6153546;23;20176;-90
2022/03/15 08:01:53;;;;;;;32.90;14.97;;;;;;;;;;6150075;23;20172;-89
2022/03/15 08:05:00;;;;;;;34.67;15.07;;;;;;;;;;6152079;23;20181;-90
2022/03/15 08:08:08;;;;;;;43.27;14.87;;;;;;;;;;6153804;23;20177;-90
2022/03/15 08:11:14;;;;;;;38.27;15.40;;;;;;;;;;6151288;23;20350;-89
2022/03/15 08:14:18;;;;;;;34.20;14.90;;;;;;;;;;6150462;23;20177;-89
2022/03/15 08:17:24;;;;;;;33.93;15.10;;;;;;;;;;6150445;23;20169;-88
2022/03/15 08:20:33;;;;;;;38.47;15.97;;;;;;;;;;6150937;23;20172;-90
2022/03/15 08:23:39;;;;;;;35.97;16.00;;;;;;;;;;6118070;23;20248;-90
2022/03/15 08:26:44;;;;;;;33.40;16.77;;;;;;;;;;6120265;23;20173;-88
2022/03/15 08:29:49;;;;;;;36.20;16.17;;;;;;;;;;6137019;23;20217;-90
2022/03/15 08:32:54;;;;;;;35.20;16.00;;;;;;;;;;6122860;23;20173;-89
2022/03/15 08:36:00;;;;;;;31.80;15.57;;;;;;;;;;6122136;23;20470;-90
2022/03/15 08:39:08;;;;;;;35.50;15.67;;;;;;;;;;6123448;23;20210;-90
2022/03/15 08:42:14;;;;;;;38.50;16.27;;;;;;;;;;6121141;23;20173;-89
2022/03/15 08:45:19;;;;;;;32.77;15.63;;;;;;;;;;6140569;23;20219;-91
2022/03/15 08:48:23;;;;;;;34.67;14.97;;;;;;;;;;6124152;23;20172;-89
2022/03/15 08:51:28;;;;;;;32.57;14.70;;;;;;;;;;6121534;23;20193;-90
2022/03/15 08:54:34;;;;;;;31.83;15.67;;;;;;;;;;6123149;23;20176;-90
2022/03/15 08:57:40;;;;;;;35.33;15.27;;;;;;;;;;6122416;23;20181;-90
2022/03/15 09:00:45;;;;;;;35.50;15.97;;;;;;;;;;6124285;23;20169;-89
2022/03/15 09:03:50;;;;;;;38.73;15.60;;;;;;;;;;6121724;23;20173;-89
2022/03/15 09:06:56;;;;;;;35.70;15.63;;;;;;;;;;6120405;23;20173;-89
2022/03/15 09:10:03;;;;;;;29.00;14.33;;;;;;;;;;6121588;23;20164;-90
2022/03/15 09:13:09;;;;;;;32.77;15.33;;;;;;;;;;6121944;23;20169;-89
2022/03/15 09:16:14;;;;;;;29.67;13.90;;;;;;;;;;6118665;23;20192;-90
2022/03/15 09:19:19;;;;;;;31.00;14.47;;;;;;;;;;6122267;23;20612;-88
2022/03/15 09:22:24;;;;;;;34.10;14.50;;;;;;;;;;6140197;23;20192;-88
2022/03/15 09:25:32;;;;;;;32.27;14.77;;;;;;;;;;6147572;23;20220;-88
2022/03/15 09:28:37;;;;;;;31.33;15.00;;;;;;;;;;6167059;23;20559;-88
2022/03/15 09:31:42;;;;;;;29.67;13.70;;;;;;;;;;6166802;23;20191;-88
2022/03/15 09:34:47;;;;;;;32.58;15.73;;;;;;;;;;6166847;23;20160;-88
2022/03/15 09:37:54;;;;;;;40.17;14.32;;;;;;;;;;6149604;23;20172;-90
2022/03/15 09:41:03;;;;;;;31.40;14.45;;;;;;;;;;6150509;23;20205;-88
2022/03/15 09:44:09;;;;;;;37.55;14.23;;;;;;;;;;6166839;23;20169;-88
2022/03/15 09:47:17;;;;;;;31.45;14.40;;;;;;;;;;6164176;23;20180;-90
2022/03/15 09:50:22;;;;;;;28.08;13.95;;;;;;;;;;6147926;23;20168;-88
2022/03/15 09:53:28;;;;;;;36.00;14.05;;;;;;;;;;6166402;23;20504;-88
2022/03/15 09:56:38;;;;;;;28.38;13.82;;;;;;;;;;6151031;23;20176;-91
2022/03/15 09:59:44;;;;;;;32.63;14.85;;;;;;;;;;6149743;23;20227;-88
2022/03/15 10:02:49;;;;;;;28.55;14.43;;;;;;;;;;6164712;23;20171;-88
2022/03/15 10:05:54;;;;;;;36.70;15.15;;;;;;;;;;6149378;23;20168;-87
2022/03/15 10:08:59;;;;;;;30.88;14.20;;;;;;;;;;6148282;23;20173;-88
2022/03/15 10:12:08;;;;;;;33.53;14.70;;;;;;;;;;6148835;23;20207;-87
2022/03/15 10:15:15;;;;;;;36.78;18.00;;;;;;;;;;6148031;23;20202;-90
2022/03/15 10:18:21;;;;;;;30.88;13.65;;;;;;;;;;6165607;23;20244;-91
2022/03/15 10:21:38;;;;;;;28.27;12.98;;;;;;;;;;6148670;23;20192;-90
2022/03/15 10:24:45;;;;;;;28.83;13.40;;;;;;;;;;6150181;23;20172;-91
2022/03/15 10:27:55;;;;;;;28.00;12.43;;;;;;;;;;6150351;23;20176;-91
2022/03/15 10:31:02;;;;;;;21.80;11.07;;;;;;;;;;6149503;23;20276;-90
2022/03/15 10:34:08;;;;;;;25.33;11.77;;;;;;;;;;6148489;23;20159;-89
2022/03/15 10:37:13;;;;;;;21.05;10.77;;;;;;;;;;6165519;23;20171;-88
2022/03/15 10:40:18;;;;;;;18.98;10.05;;;;;;;;;;6149021;23;20181;-89
2022/03/15 10:43:27;;;;;;;26.27;10.85;;;;;;;;;;6147945;23;20172;-90
2022/03/15 10:46:32;;;;;;;23.27;11.65;;;;;;;;;;6147032;23;20215;-90
2022/03/15 10:49:48;;;;;;;19.35;10.23;;;;;;;;;;6148074;23;20176;-91
2022/03/15 10:52:53;;;;;;;20.60;10.82;;;;;;;;;;6146691;23;20238;-89
2022/03/15 10:56:11;;;;;;;21.67;10.93;;;;;;;;;;6146005;23;20284;-90
2022/03/15 10:59:17;;;;;;;22.13;11.68;;;;;;;;;;6147998;23;20245;-90
2022/03/15 11:02:30;;;;;;;28.48;12.50;;;;;;;;;;6167473;23;20220;-91
2022/03/15 11:05:36;;;;;;;24.90;12.13;;;;;;;;;;6149463;23;20160;-90
2022/03/15 11:08:41;;;;;;;40.13;12.48;;;;;;;;;;6149132;23;20180;-90
2022/03/15 11:11:49;;;;;;;32.60;13.07;;;;;;;;;;6152965;23;20244;-90
2022/03/15 11:14:59;;;;;;;26.60;11.95;;;;;;;;;;6151017;23;20175;-89
2022/03/15 11:18:05;;;;;;;23.63;11.93;;;;;;;;;;6169114;23;20185;-88
2022/03/15 11:21:10;;;;;;;26.50;12.75;;;;;;;;;;6151673;23;20187;-87
2022/03/15 11:24:18;;;;;;;23.63;12.55;;;;;;;;;;6149897;23;20195;-91
2022/03/15 11:27:25;;;;;;;24.67;12.15;;;;;;;;;;6152325;23;20608;-88
2022/03/15 11:30:34;;;;;;;22.40;12.20;;;;;;;;;;6151420;23;20177;-87
2022/03/15 11:33:42;;;;;;;23.48;11.50;;;;;;;;;;6153105;23;20240;-91
2022/03/15 11:36:47;;;;;;;22.27;10.95;;;;;;;;;;6156467;23;20216;-89
2022/03/15 11:39:54;;;;;;;28.58;11.43;;;;;;;;;;6154366;23;20195;-89
2022/03/15 11:43:04;;;;;;;27.05;11.70;;;;;;;;;;6151604;23;20226;-89
2022/03/15 11:46:14;;;;;;;28.85;12.35;;;;;;;;;;6149442;23;20169;-90
2022/03/15 11:49:26;;;;;;;24.38;10.98;;;;;;;;;;6150250;23;20296;-90
2022/03/15 11:52:39;;;;;;;21.13;10.05;;;;;;;;;;6150825;23;20196;-90
2022/03/15 11:55:49;;;;;;;35.10;9.45;;;;;;;;;;6149800;23;20180;-90
2022/03/15 11:58:54;;;;;;;21.38;9.27;;;;;;;;;;6150102;23;20216;-90
2022/03/15 12:02:04;;;;;;;19.08;8.93;;;;;;;;;;6150952;23;20531;-91
2022/03/15 12:05:17;;;;;;;15.82;8.10;;;;;;;;;;6153071;23;20172;-90
2022/03/15 12:08:24;;;;;;;18.13;8.77;;;;;;;;;;6152215;23;20201;-88
2022/03/15 12:11:32;;;;;;;19.15;8.63;;;;;;;;;;6151517;23;20180;-87
2022/03/15 12:14:41;;;;;;;17.08;8.73;;;;;;;;;;6151570;23;20250;-90
2022/03/15 12:17:47;;;;;;;16.55;8.20;;;;;;;;;;6150211;23;20588;-90
2022/03/15 12:20:59;;;;;;;21.85;8.75;;;;;;;;;;6149528;23;20172;-92
2022/03/15 12:24:05;;;;;;;21.83;8.77;;;;;;;;;;6151511;23;20261;-92
2022/03/15 12:27:13;;;;;;;19.80;8.52;;;;;;;;;;6149745;23;20180;-88
2022/03/15 12:30:34;;;;;;;18.15;9.55;;;;;;;;;;6169740;23;20284;-91
2022/03/15 12:33:40;;;;;;;19.40;9.02;;;;;;;;;;6151467;23;20165;-90
2022/03/15 12:36:48;;;;;;;19.15;8.27;;;;;;;;;;6150679;23;20172;-90
2022/03/15 12:39:57;;;;;;;26.65;9.30;;;;;;;;;;6150922;23;20188;-89
2022/03/15 12:43:03;;;;;;;18.25;8.60;;;;;;;;;;6149968;23;20172;-86
2022/03/15 12:46:09;;;;;;;23.92;9.23;;;;;;;;;;6150551;23;20172;-89
2022/03/15 12:49:18;;;;;;;18.60;8.20;;;;;;;;;;6150326;23;20184;-89
2022/03/15 12:52:23;;;;;;;20.42;9.18;;;;;;;;;;6150578;23;20200;-88
2022/03/15 12:55:29;;;;;;;17.52;8.35;;;;;;;;;;6149381;23;20172;-89
2022/03/15 12:58:35;;;;;;;21.55;8.93;;;;;;;;;;6149706;23;20188;-89
2022/03/15 13:01:41;;;;;;;18.55;8.27;;;;;;;;;;6147345;23;20168;-89
2022/03/15 13:04:48;;;;;;;18.38;8.60;;;;;;;;;;6150096;23;20314;-89
2022/03/15 13:07:56;;;;;;;24.40;9.63;;;;;;;;;;6148403;23;20636;-89
2022/03/15 13:11:05;;;;;;;21.63;10.00;;;;;;;;;;6148766;23;20315;-91
2022/03/15 13:14:10;;;;;;;22.90;9.10;;;;;;;;;;6150504;23;20184;-88
2022/03/15 13:17:19;;;;;;;23.38;9.50;;;;;;;;;;6148716;23;20169;-90
2022/03/15 13:20:34;;;;;;;21.52;9.05;;;;;;;;;;6169290;23;20184;-89
2022/03/15 13:23:41;;;;;;;26.13;9.20;;;;;;;;;;6150218;23;20164;-88
2022/03/15 13:26:50;;;;;;;18.58;8.95;;;;;;;;;;6147599;23;20680;-89
2022/03/15 13:30:08;;;;;;;20.73;8.95;;;;;;;;;;6149358;23;20180;-90
2022/03/15 13:33:14;;;;;;;22.92;9.77;;;;;;;;;;6149607;23;20200;-90
2022/03/15 13:36:21;;;;;;;24.35;9.02;;;;;;;;;;6147898;23;20188;-89
2022/03/15 13:39:26;;;;;;;20.80;9.15;;;;;;;;;;6151586;23;20175;-89
2022/03/15 13:42:32;;;;;;;18.02;8.90;;;;;;;;;;6151344;23;20165;-89
2022/03/15 13:45:40;;;;;;;22.98;9.23;;;;;;;;;;6151893;23;20172;-89
2022/03/15 13:48:48;;;;;;;20.65;8.88;;;;;;;;;;6151217;23;20173;-89
2022/03/15 13:52:05;;;;;;;19.20;9.20;;;;;;;;;;6148504;23;20750;-89
2022/03/15 13:55:11;;;;;;;26.23;9.25;;;;;;;;;;6167960;23;20169;-90
2022/03/15 13:58:26;;;;;;;22.20;9.15;;;;;;;;;;6152768;23;20216;-88
2022/03/15 14:01:33;;;;;;;17.85;9.25;;;;;;;;;;6151694;23;20579;-88
2022/03/15 14:04:39;;;;;;;20.10;9.18;;;;;;;;;;6150684;23;20176;-89
2022/03/15 14:07:45;;;;;;;18.67;9.40;;;;;;;;;;6150971;23;20196;-88
2022/03/15 14:10:54;;;;;;;18.70;8.93;;;;;;;;;;6151372;23;20225;-89
2022/03/15 14:14:05;;;;;;;21.50;10.13;;;;;;;;;;6152327;23;20204;-89
2022/03/15 14:17:11;;;;;;;20.33;9.38;;;;;;;;;;6151412;23;20168;-90
2022/03/15 14:20:18;;;;;;;20.00;8.60;;;;;;;;;;6151673;23;20165;-90
2022/03/15 14:23:24;;;;;;;20.52;9.73;;;;;;;;;;6120068;23;20221;-90
2022/03/15 14:26:32;;;;;;;19.48;9.45;;;;;;;;;;6138420;23;20173;-88
2022/03/15 14:29:37;;;;;;;20.98;9.07;;;;;;;;;;6119649;23;20177;-89
2022/03/15 14:32:50;;;;;;;17.00;8.85;;;;;;;;;;6139140;23;20193;-91
2022/03/15 14:35:59;;;;;;;22.60;9.77;;;;;;;;;;6124408;23;20218;-89
2022/03/15 14:39:14;;;;;;;18.45;8.48;;;;;;;;;;6139203;23;20169;-89
2022/03/15 14:42:20;;;;;;;23.02;9.07;;;;;;;;;;6122729;23;20161;-89
2022/03/15 14:45:28;;;;;;;24.20;9.63;;;;;;;;;;6139594;23;20173;-88
2022/03/15 14:48:34;;;;;;;25.73;9.07;;;;;;;;;;6142830;23;20165;-89
2022/03/15 14:51:41;;;;;;;27.40;10.50;;;;;;;;;;6142333;23;20209;-89
2022/03/15 14:54:50;;;;;;;21.50;10.05;;;;;;;;;;6125254;23;20169;-87
2022/03/15 14:57:57;;;;;;;26.88;11.00;;;;;;;;;;6124426;23;20169;-88
2022/03/15 15:01:03;;;;;;;27.92;9.90;;;;;;;;;;6125560;23;20189;-88
2022/03/15 15:04:08;;;;;;;28.23;9.38;;;;;;;;;;6125480;23;20176;-89
2022/03/15 15:07:14;;;;;;;28.10;9.15;;;;;;;;;;6142317;23;20221;-89
2022/03/15 15:10:23;;;;;;;25.75;10.13;;;;;;;;;;6126997;23;20222;-89
2022/03/15 15:13:28;;;;;;;25.27;11.00;;;;;;;;;;6125694;23;20265;-90
2022/03/15 15:16:36;;;;;;;26.83;10.98;;;;;;;;;;6140922;23;20169;-87
2022/03/15 15:19:42;;;;;;;28.42;10.40;;;;;;;;;;6123422;23;20169;-89
2022/03/15 15:22:47;;;;;;;29.50;10.85;;;;;;;;;;6165453;23;20263;-90
2022/03/15 15:25:56;;;;;;;28.23;11.98;;;;;;;;;;6170107;23;20208;-90
2022/03/15 15:29:01;;;;;;;24.55;10.85;;;;;;;;;;6154330;23;20176;-89
2022/03/15 15:32:06;;;;;;;28.77;11.27;;;;;;;;;;6153480;23;20169;-87
2022/03/15 15:35:11;;;;;;;29.85;12.85;;;;;;;;;;6151272;23;20172;-88
2022/03/15 15:38:18;;;;;;;28.02;11.15;;;;;;;;;;6151151;23;20168;-89
2022/03/15 15:41:26;;;;;;;25.23;11.27;;;;;;;;;;6151543;23;20177;-87
2022/03/15 15:44:31;;;;;;;30.15;12.30;;;;;;;;;;6157438;23;20172;-91
2022/03/15 15:47:42;;;;;;;23.88;11.82;;;;;;;;;;6155995;23;20252;-88
2022/03/15 15:50:48;;;;;;;32.97;16.73;;;;;;;;;;6158136;23;20172;-88
2022/03/15 15:53:54;;;;;;;31.98;15.25;;;;;;;;;;6156511;23;20285;-90
2022/03/15 15:57:02;;;;;;;28.70;11.80;;;;;;;;;;6158508;23;20212;-88
2022/03/15 16:00:11;;;;;;;24.67;10.93;;;;;;;;;;6153151;23;20176;-89
2022/03/15 16:03:17;;;;;;;31.35;12.35;;;;;;;;;;6171366;23;20177;-90
2022/03/15 16:06:22;;;;;;;23.25;10.65;;;;;;;;;;6152965;23;20164;-88
2022/03/15 16:09:27;;;;;;;26.13;11.38;;;;;;;;;;6169252;23;20220;-87
2022/03/15 16:12:34;;;;;;;27.98;11.77;;;;;;;;;;6153686;23;20288;-86
2022/03/15 16:15:39;;;;;;;24.77;11.98;;;;;;;;;;6152640;23;20172;-90
2022/03/15 16:18:44;;;;;;;28.27;12.70;;;;;;;;;;6151099;23;20172;-89
2022/03/15 16:21:49;;;;;;;30.38;12.65;;;;;;;;;;6140621;23;20192;-89
2022/03/15 16:24:55;;;;;;;38.95;13.50;;;;;;;;;;6137623;23;20177;-86
2022/03/15 16:28:02;;;;;;;33.33;13.77;;;;;;;;;;6139797;23;20233;-86
2022/03/15 16:31:09;;;;;;;27.48;12.77;;;;;;;;;;6139755;23;20235;-89
2022/03/15 16:34:14;;;;;;;46.97;21.05;;;;;;;;;;6137855;23;20204;-88
2022/03/15 16:37:19;;;;;;;45.35;18.40;;;;;;;;;;6139600;23;20497;-88
2022/03/15 16:40:24;;;;;;;40.05;16.55;;;;;;;;;;6139417;23;20177;-88
2022/03/15 16:43:34;;;;;;;34.63;15.13;;;;;;;;;;6137761;23;20173;-88
2022/03/15 16:46:39;;;;;;;26.63;14.07;;;;;;;;;;6136763;23;20226;-90
2022/03/15 16:49:45;;;;;;;30.95;14.68;;;;;;;;;;6137718;23;20293;-88
2022/03/15 16:52:50;;;;;;;30.30;13.38;;;;;;;;;;6140042;23;20193;-89
2022/03/15 16:55:56;;;;;;;25.58;14.40;;;;;;;;;;6139507;23;20181;-89
2022/03/15 16:59:14;;;;;;;28.48;13.35;;;;;;;;;;6142163;23;20169;-88
2022/03/15 17:02:20;;;;;;;30.60;14.48;;;;;;;;;;6142576;23;20336;-89
2022/03/15 17:05:44;;;;;;;31.80;13.85;;;;;;;;;;6142397;23;20596;-89
2022/03/15 17:08:49;;;;;;;34.13;14.57;;;;;;;;;;6141216;23;20226;-88
2022/03/15 17:12:01;;;;;;;37.65;17.02;;;;;;;;;;6140231;23;20177;-90
2022/03/15 17:15:10;;;;;;;40.58;16.60;;;;;;;;;;6139921;23;20173;-89
2022/03/15 17:18:16;;;;;;;31.10;16.08;;;;;;;;;;6139396;23;20176;-89
2022/03/15 17:21:29;;;;;;;36.83;17.88;;;;;;;;;;6144665;23;20196;-89
2022/03/15 17:24:35;;;;;;;35.70;17.40;;;;;;;;;;6151001;23;20176;-88
2022/03/15 17:27:48;;;;;;;39.60;17.00;;;;;;;;;;6150900;23;20272;-92
2022/03/15 17:30:56;;;;;;;36.35;17.42;;;;;;;;;;6153522;23;20167;-90
2022/03/15 17:34:07;;;;;;;35.20;16.25;;;;;;;;;;6152046;23;20645;-87
2022/03/15 17:37:19;;;;;;;38.95;18.45;;;;;;;;;;6152386;23;20176;-90
2022/03/15 17:40:32;;;;;;;51.28;22.90;;;;;;;;;;6163784;23;20499;-90
2022/03/15 17:43:50;;;;;;;49.60;23.15;;;;;;;;;;6146451;23;20176;-88
2022/03/15 17:47:02;;;;;;;38.93;17.33;;;;;;;;;;6148730;23;20180;-89
2022/03/15 17:50:08;;;;;;;36.47;16.05;;;;;;;;;;6171249;23;20173;-90
2022/03/15 17:53:14;;;;;;;31.35;15.15;;;;;;;;;;6154883;23;20195;-89
2022/03/15 17:56:20;;;;;;;31.77;14.90;;;;;;;;;;6152556;23;20203;-89
2022/03/15 17:59:25;;;;;;;34.63;14.77;;;;;;;;;;6154771;23;20196;-89
2022/03/15 18:02:32;;;;;;;32.77;15.23;;;;;;;;;;6154172;23;20611;-91
2022/03/15 18:05:37;;;;;;;44.90;14.70;;;;;;;;;;6153980;23;20179;-88
2022/03/15 18:08:58;;;;;;;33.03;16.05;;;;;;;;;;6154119;23;20171;-89
2022/03/15 18:12:05;;;;;;;30.92;15.05;;;;;;;;;;6152716;23;20250;-89
2022/03/15 18:15:11;;;;;;;39.75;15.90;;;;;;;;;;6155780;23;20180;-91
2022/03/15 18:18:22;;;;;;;30.38;15.10;;;;;;;;;;6151160;23;20632;-89